createdAt,value
2022-09-25T00:01:32.935Z,77.56
2022-09-25T00:04:19.527Z,77.65
2022-09-25T00:07:05.178Z,77.43
2022-09-25T00:09:50.334Z,77.15
2022-09-25T00:12:36.072Z,77.13
2022-09-25T00:15:22.528Z,76.86
2022-09-25T00:18:08.013Z,76.80
2022-09-25T00:21:01.872Z,76.99
2022-09-25T00:23:47.794Z,77.09
2022-09-25T00:26:36.345Z,76.85
2022-09-25T00:29:22.054Z,77.40
2022-09-25T00:32:09.998Z,77.28
2022-09-25T00:34:55.720Z,77.19
2022-09-25T00:37:40.998Z,76.85
2022-09-25T00:40:26.424Z,77.22
2022-09-25T00:43:33.501Z,76.90
2022-09-25T00:46:36.773Z,77.24
2022-09-25T00:49:25.967Z,77.62
2022-09-25T00:52:13.336Z,77.11
2022-09-25T00:55:03.259Z,77.40
2022-09-25T00:57:52.470Z,77.47
2022-09-25T01:00:37.949Z,77.46
2022-09-25T01:03:24.226Z,77.50
2022-09-25T01:06:12.111Z,77.31
2022-09-25T01:08:59.245Z,77.40
2022-09-25T01:11:45.209Z,77.17
2022-09-25T01:14:34.189Z,77.52
2022-09-25T01:17:32.378Z,77.96
2022-09-25T01:21:12.591Z,77.78
2022-09-25T01:24:37.353Z,78.06
2022-09-25T01:27:32.157Z,77.65
2022-09-25T01:30:19.769Z,77.61
2022-09-25T01:33:15.069Z,77.45
2022-09-25T01:36:12.024Z,77.28
2022-09-25T01:39:05.992Z,77.40
2022-09-25T01:42:03.185Z,77.80
2022-09-25T01:45:02.404Z,77.83
2022-09-25T01:47:50.254Z,78.03
2022-09-25T01:50:43.428Z,77.93
2022-09-25T01:53:43.510Z,78.12
2022-09-25T01:56:33.903Z,77.87
2022-09-25T01:59:45.310Z,78.39
2022-09-25T02:02:37.976Z,78.17
2022-09-25T02:05:31.078Z,78.57
2022-09-25T02:08:31.087Z,78.41
2022-09-25T02:11:16.788Z,78.20
2022-09-25T02:14:13.714Z,77.93
2022-09-25T02:17:01.374Z,78.24
2022-09-25T02:20:05.611Z,78.06
2022-09-25T02:22:54.145Z,78.79
2022-09-25T02:26:08.263Z,78.80
2022-09-25T02:28:54.452Z,78.58
2022-09-25T02:31:45.093Z,78.71
2022-09-25T02:34:32.539Z,78.65
2022-09-25T02:37:18.791Z,78.83
2022-09-25T02:40:04.937Z,78.27
2022-09-25T02:43:04.130Z,78.48
2022-09-25T02:46:03.839Z,78.58
2022-09-25T02:49:04.757Z,78.56
2022-09-25T02:52:02.830Z,78.43
2022-09-25T02:55:07.147Z,78.77
2022-09-25T02:58:04.088Z,78.94
2022-09-25T03:00:52.195Z,79.14
2022-09-25T03:03:39.217Z,79.36
2022-09-25T03:06:25.941Z,79.46
2022-09-25T03:09:13.610Z,79.25
2022-09-25T03:11:59.200Z,79.28
2022-09-25T03:14:44.568Z,79.64
2022-09-25T03:17:29.835Z,79.72
2022-09-25T03:20:15.155Z,79.61
2022-09-25T03:23:00.904Z,79.67
2022-09-25T03:25:50.266Z,79.60
2022-09-25T03:28:36.614Z,79.77
2022-09-25T03:31:22.684Z,79.61
2022-09-25T03:34:09.467Z,79.96
2022-09-25T03:36:54.694Z,79.81
2022-09-25T03:39:40.009Z,79.06
2022-09-25T03:42:27.645Z,79.59
2022-09-25T03:45:13.440Z,79.09
2022-09-25T03:47:58.753Z,79.37
2022-09-25T03:50:44.580Z,79.34
2022-09-25T03:53:31.731Z,78.94
2022-09-25T03:56:20.387Z,78.80
2022-09-25T03:59:05.622Z,79.07
2022-09-25T04:01:50.973Z,79.06
2022-09-25T04:04:37.771Z,79.17
2022-09-25T04:07:24.787Z,78.50
2022-09-25T04:10:10.319Z,78.71
2022-09-25T04:12:55.707Z,78.88
2022-09-25T04:15:42.783Z,78.84
2022-09-25T04:18:31.923Z,78.87
2022-09-25T04:21:17.486Z,78.37
2022-09-25T04:24:21.442Z,78.30
2022-09-25T04:27:07.222Z,78.92
2022-09-25T04:29:52.963Z,79.13
2022-09-25T04:32:56.791Z,78.81
2022-09-25T04:35:42.315Z,79.20
2022-09-25T04:38:27.706Z,79.47
2022-09-25T04:41:13.211Z,79.40
2022-09-25T04:43:58.469Z,79.51
2022-09-25T04:46:44.208Z,79.40
2022-09-25T04:49:29.399Z,79.40
2022-09-25T04:52:16.152Z,79.37
2022-09-25T04:55:01.572Z,79.46
2022-09-25T04:57:58.795Z,79.42
2022-09-25T05:00:44.627Z,80.27
2022-09-25T05:03:30.128Z,80.31
2022-09-25T05:06:15.893Z,79.69
2022-09-25T05:09:02.032Z,79.79
2022-09-25T05:11:47.730Z,79.59
2022-09-25T05:14:33.159Z,79.95
2022-09-25T05:17:18.471Z,80.07
2022-09-25T05:20:03.781Z,80.18
2022-09-25T05:22:49.115Z,80.10
2022-09-25T05:25:34.677Z,79.80
2022-09-25T05:28:20.353Z,79.89
2022-09-25T05:31:06.515Z,79.99
2022-09-25T05:33:53.969Z,79.84
2022-09-25T05:36:39.776Z,79.89
2022-09-25T05:39:24.883Z,80.28
2022-09-25T05:42:10.679Z,80.28
2022-09-25T05:44:56.200Z,80.21
2022-09-25T05:47:43.607Z,79.88
2022-09-25T05:50:29.720Z,79.88
2022-09-25T05:53:15.278Z,80.06
2022-09-25T05:56:03.476Z,78.95
2022-09-25T05:58:49.280Z,78.54
2022-09-25T06:01:34.903Z,78.05
2022-09-25T06:04:20.403Z,76.45
2022-09-25T06:07:06.010Z,75.91
2022-09-25T06:09:51.360Z,76.04
2022-09-25T06:12:36.776Z,75.82
2022-09-25T06:15:24.155Z,75.52
2022-09-25T06:18:10.046Z,75.73
2022-09-25T06:21:04.619Z,74.63
2022-09-25T06:23:50.224Z,74.26
2022-09-25T06:26:35.576Z,73.20
2022-09-25T06:29:20.858Z,72.97
2022-09-25T06:32:06.206Z,72.93
2022-09-25T06:34:51.405Z,71.56
2022-09-25T06:37:36.905Z,71.62
2022-09-25T06:40:22.269Z,70.88
2022-09-25T06:43:11.661Z,69.40
2022-09-25T06:46:00.137Z,70.16
2022-09-25T06:48:54.257Z,69.44
2022-09-25T06:51:40.310Z,69.68
2022-09-25T06:54:29.624Z,69.49
2022-09-25T06:57:16.184Z,70.34
2022-09-25T07:00:03.511Z,69.99
2022-09-25T07:03:07.792Z,69.47
2022-09-25T07:05:53.174Z,69.03
2022-09-25T07:08:40.160Z,69.23
2022-09-25T07:11:28.277Z,69.76
2022-09-25T07:14:13.836Z,68.83
2022-09-25T07:16:59.773Z,68.15
2022-09-25T07:19:45.020Z,68.09
2022-09-25T07:22:30.517Z,68.58
2022-09-25T07:25:16.142Z,68.59
2022-09-25T07:28:02.288Z,68.40
2022-09-25T07:30:49.881Z,68.42
2022-09-25T07:33:37.132Z,67.47
2022-09-25T07:36:23.236Z,67.38
2022-09-25T07:39:11.759Z,67.54
2022-09-25T07:42:00.278Z,67.20
2022-09-25T07:44:48.519Z,66.21
2022-09-25T07:47:34.162Z,65.90
2022-09-25T07:50:19.782Z,65.68
2022-09-25T07:53:05.126Z,65.96
2022-09-25T07:55:51.164Z,66.10
2022-09-25T07:58:36.607Z,66.44
2022-09-25T08:01:22.014Z,66.64
2022-09-25T08:04:07.599Z,65.99
2022-09-25T08:06:53.294Z,66.36
2022-09-25T08:09:41.457Z,66.65
2022-09-25T08:12:29.821Z,67.27
2022-09-25T08:15:16.465Z,65.66
2022-09-25T08:18:02.172Z,64.88
2022-09-25T08:20:48.531Z,62.64
2022-09-25T08:23:34.547Z,63.11
2022-09-25T08:26:22.045Z,61.00
2022-09-25T08:29:10.753Z,61.55
2022-09-25T08:31:56.316Z,61.71
2022-09-25T08:34:43.078Z,61.53
2022-09-25T08:37:31.275Z,60.87
2022-09-25T08:40:20.450Z,61.40
2022-09-25T08:43:08.383Z,60.54
2022-09-25T08:46:18.872Z,60.44
2022-09-25T08:49:15.697Z,60.17
2022-09-25T08:52:09.222Z,59.54
2022-09-25T08:54:55.396Z,59.07
2022-09-25T08:57:44.330Z,59.06
2022-09-25T09:00:30.996Z,58.61
2022-09-25T09:03:17.303Z,58.75
2022-09-25T09:06:08.538Z,60.69
2022-09-25T09:09:29.803Z,60.38
2022-09-25T09:12:28.800Z,59.55
2022-09-25T09:15:32.761Z,60.54
2022-09-25T09:18:29.057Z,60.12
2022-09-25T09:21:38.655Z,57.99
2022-09-25T09:24:34.172Z,57.55
2022-09-25T09:27:26.044Z,58.35
2022-09-25T09:30:23.390Z,56.89
2022-09-25T09:33:21.320Z,56.23
2022-09-25T09:36:34.927Z,56.99
2022-09-25T09:39:24.719Z,57.32
2022-09-25T09:42:28.882Z,57.42
2022-09-25T09:45:46.871Z,58.38
2022-09-25T09:48:44.491Z,56.11
2022-09-25T09:51:45.034Z,56.08
2022-09-25T09:54:45.768Z,57.11
2022-09-25T09:57:38.110Z,56.32
2022-09-25T10:00:24.324Z,57.32
2022-09-25T10:03:17.269Z,56.67
2022-09-25T10:06:09.069Z,55.34
2022-09-25T10:08:54.686Z,55.27
2022-09-25T10:11:41.637Z,55.48
2022-09-25T10:14:33.091Z,56.37
2022-09-25T10:17:20.011Z,56.31
2022-09-25T10:20:24.977Z,55.79
2022-09-25T10:23:35.835Z,54.80
2022-09-25T10:26:35.949Z,55.03
2022-09-25T10:29:21.235Z,55.70
2022-09-25T10:32:11.963Z,56.30
2022-09-25T10:34:57.637Z,55.60
2022-09-25T10:37:43.465Z,56.10
2022-09-25T10:40:35.841Z,56.93
2022-09-25T10:43:24.011Z,56.38
2022-09-25T10:46:15.434Z,56.33
2022-09-25T10:49:35.010Z,56.56
2022-09-25T10:52:21.808Z,56.72
2022-09-25T10:55:46.410Z,56.16
2022-09-25T10:58:41.001Z,55.33
2022-09-25T11:01:46.156Z,56.36
2022-09-25T11:04:34.405Z,56.17
2022-09-25T11:07:24.897Z,54.10
2022-09-25T11:10:20.867Z,54.11
2022-09-25T11:13:21.170Z,53.60
2022-09-25T11:16:12.036Z,53.73
2022-09-25T11:19:13.116Z,54.69
2022-09-25T11:22:09.525Z,55.45
2022-09-25T11:25:04.217Z,55.89
2022-09-25T11:28:15.103Z,55.31
2022-09-25T11:31:19.234Z,55.73
2022-09-25T11:34:31.347Z,55.07
2022-09-25T11:37:36.129Z,54.21
2022-09-25T11:40:46.711Z,53.49
2022-09-25T11:44:05.990Z,54.11
2022-09-25T11:47:05.081Z,53.90
2022-09-25T11:49:53.307Z,54.70
2022-09-25T11:52:43.773Z,55.12
2022-09-25T11:55:45.849Z,55.30
2022-09-25T11:58:54.285Z,55.20
2022-09-25T12:01:50.297Z,55.88
2022-09-25T12:04:50.324Z,55.63
2022-09-25T12:08:07.214Z,55.62
2022-09-25T12:11:12.044Z,55.55
2022-09-25T12:14:26.766Z,55.56
2022-09-25T12:17:46.140Z,54.64
2022-09-25T12:20:58.028Z,54.36
2022-09-25T12:23:51.653Z,54.80
2022-09-25T12:26:40.013Z,54.60
2022-09-25T12:29:37.877Z,55.20
2022-09-25T12:32:26.570Z,54.86
2022-09-25T12:35:38.795Z,55.68
2022-09-25T12:38:55.467Z,54.73
2022-09-25T12:41:51.106Z,54.71
2022-09-25T12:44:50.442Z,55.31
2022-09-25T12:47:43.183Z,54.97
2022-09-25T12:50:33.552Z,55.95
2022-09-25T12:53:33.673Z,54.68
2022-09-25T12:56:27.889Z,55.51
2022-09-25T12:59:21.720Z,54.73
2022-09-25T13:02:26.499Z,54.82
2022-09-25T13:05:30.514Z,56.09
2022-09-25T13:08:42.070Z,55.65
2022-09-25T13:11:34.375Z,56.67
2022-09-25T13:14:31.623Z,56.31
2022-09-25T13:17:17.016Z,56.57
2022-09-25T13:20:28.730Z,56.81
2022-09-25T13:23:26.340Z,57.69
2022-09-25T13:26:16.395Z,57.59
2022-09-25T13:29:25.664Z,57.72
2022-09-25T13:32:16.624Z,57.94
2022-09-25T13:35:05.958Z,58.26
2022-09-25T13:37:55.730Z,58.61
2022-09-25T13:40:44.089Z,58.53
2022-09-25T13:43:30.530Z,58.95
2022-09-25T13:46:23.685Z,59.32
2022-09-25T13:49:34.679Z,59.44
2022-09-25T13:52:30.432Z,59.64
2022-09-25T13:55:22.520Z,59.99
2022-09-25T13:58:29.007Z,60.49
2022-09-25T14:01:34.317Z,60.78
2022-09-25T14:04:26.381Z,60.83
2022-09-25T14:07:18.509Z,61.24
2022-09-25T14:10:08.346Z,61.44
2022-09-25T14:12:54.576Z,61.56
2022-09-25T14:15:42.441Z,61.78
2022-09-25T14:18:34.397Z,61.68
2022-09-25T14:21:22.188Z,61.84
2022-09-25T14:24:30.932Z,61.94
2022-09-25T14:27:27.913Z,62.27
2022-09-25T14:30:14.790Z,62.73
2022-09-25T14:33:32.119Z,62.91
2022-09-25T14:36:39.130Z,63.30
2022-09-25T14:39:54.665Z,63.17
2022-09-25T14:43:19.203Z,63.76
2022-09-25T14:46:18.741Z,63.95
2022-09-25T14:49:27.779Z,63.87
2022-09-25T14:52:19.387Z,64.50
2022-09-25T14:55:06.592Z,64.64
2022-09-25T14:57:53.100Z,64.75
2022-09-25T15:00:50.310Z,64.42
2022-09-25T15:03:43.185Z,63.43
2022-09-25T15:06:39.206Z,63.75
2022-09-25T15:09:36.942Z,62.92
2022-09-25T15:12:36.136Z,63.04
2022-09-25T15:15:22.189Z,63.08
2022-09-25T15:18:14.008Z,62.64
2022-09-25T15:21:01.344Z,63.16
2022-09-25T15:23:47.512Z,63.11
2022-09-25T15:26:40.832Z,62.98
2022-09-25T15:29:26.361Z,62.84
2022-09-25T15:32:39.460Z,63.05
2022-09-25T15:35:28.030Z,63.48
2022-09-25T15:38:14.464Z,63.25
2022-09-25T15:41:00.322Z,63.10
2022-09-25T15:43:46.424Z,63.92
2022-09-25T15:46:37.102Z,64.18
2022-09-25T15:49:33.590Z,64.80
2022-09-25T15:52:24.980Z,65.50
2022-09-25T15:55:14.856Z,65.54
2022-09-25T15:58:08.399Z,66.27
2022-09-25T16:01:19.013Z,66.52
2022-09-25T16:04:27.693Z,66.67
2022-09-25T16:07:39.900Z,67.22
2022-09-25T16:10:33.199Z,67.39
2022-09-25T16:13:21.509Z,67.30
2022-09-25T16:16:22.110Z,67.36
2022-09-25T16:19:26.170Z,67.64
2022-09-25T16:22:23.750Z,68.30
2022-09-25T16:25:25.831Z,68.43
2022-09-25T16:28:21.598Z,68.20
2022-09-25T16:31:09.369Z,68.33
2022-09-25T16:33:57.524Z,68.53
2022-09-25T16:36:45.727Z,68.79
2022-09-25T16:39:38.908Z,68.89
2022-09-25T16:42:28.131Z,69.15
2022-09-25T16:45:31.775Z,69.12
2022-09-25T16:48:27.949Z,69.41
2022-09-25T16:51:24.131Z,69.56
2022-09-25T16:54:11.489Z,69.23
2022-09-25T16:56:59.036Z,69.69
2022-09-25T16:59:44.467Z,69.65
2022-09-25T17:02:36.027Z,69.67
2022-09-25T17:05:26.461Z,69.72
2022-09-25T17:08:20.061Z,69.58
2022-09-25T17:11:05.649Z,69.80
2022-09-25T17:13:51.932Z,69.88
2022-09-25T17:16:37.843Z,69.77
2022-09-25T17:19:23.909Z,69.64
2022-09-25T17:22:09.780Z,69.74
2022-09-25T17:25:01.015Z,70.42
2022-09-25T17:27:46.912Z,70.38
2022-09-25T17:30:33.223Z,70.25
2022-09-25T17:33:20.676Z,70.40
2022-09-25T17:36:09.689Z,70.70
2022-09-25T17:38:55.153Z,70.83
2022-09-25T17:41:41.195Z,71.07
2022-09-25T17:44:28.832Z,71.77
2022-09-25T17:47:14.274Z,71.42
2022-09-25T17:49:59.797Z,71.53
2022-09-25T17:52:45.180Z,71.27
2022-09-25T17:55:32.093Z,71.77
2022-09-25T17:58:17.884Z,71.98
2022-09-25T18:01:07.465Z,72.08
2022-09-25T18:04:02.038Z,72.21
2022-09-25T18:06:48.726Z,72.40
2022-09-25T18:09:34.768Z,72.44
2022-09-25T18:12:20.359Z,72.46
2022-09-25T18:15:06.228Z,72.88
2022-09-25T18:17:51.808Z,72.95
2022-09-25T18:20:55.907Z,73.01
2022-09-25T18:23:45.824Z,73.16
2022-09-25T18:26:31.604Z,72.96
2022-09-25T18:29:19.239Z,73.50
2022-09-25T18:32:05.494Z,73.95
2022-09-25T18:34:51.689Z,73.68
2022-09-25T18:37:37.323Z,73.68
2022-09-25T18:40:22.708Z,73.62
2022-09-25T18:43:08.324Z,73.80
2022-09-25T18:45:54.537Z,73.67
2022-09-25T18:48:47.917Z,73.94
2022-09-25T18:51:34.835Z,74.21
2022-09-25T18:54:21.210Z,74.50
2022-09-25T18:57:08.403Z,74.18
2022-09-25T18:59:59.794Z,74.07
2022-09-25T19:02:47.128Z,74.69
2022-09-25T19:05:33.738Z,75.00
2022-09-25T19:08:20.595Z,74.96
2022-09-25T19:11:14.263Z,74.78
2022-09-25T19:14:01.705Z,75.30
2022-09-25T19:16:54.125Z,75.62
2022-09-25T19:19:42.047Z,75.80
2022-09-25T19:22:27.679Z,75.48
2022-09-25T19:25:15.182Z,75.36
2022-09-25T19:28:02.700Z,75.79
2022-09-25T19:31:06.210Z,75.75
2022-09-25T19:33:53.528Z,75.87
2022-09-25T19:36:38.816Z,76.00
2022-09-25T19:39:24.571Z,76.08
2022-09-25T19:42:11.147Z,76.01
2022-09-25T19:44:58.021Z,76.38
2022-09-25T19:47:43.754Z,76.56
2022-09-25T19:50:29.328Z,76.50
2022-09-25T19:53:15.420Z,76.54
2022-09-25T19:56:02.302Z,76.72
2022-09-25T19:58:49.763Z,76.54
2022-09-25T20:01:35.540Z,76.59
2022-09-25T20:04:21.363Z,76.61
2022-09-25T20:07:06.788Z,76.65
2022-09-25T20:09:52.396Z,76.92
2022-09-25T20:12:37.797Z,76.77
2022-09-25T20:15:23.179Z,76.95
2022-09-25T20:18:08.653Z,77.46
2022-09-25T20:20:54.222Z,77.35
2022-09-25T20:23:39.665Z,77.46
2022-09-25T20:26:26.232Z,77.23
2022-09-25T20:29:14.092Z,77.71
2022-09-25T20:31:59.274Z,78.12
2022-09-25T20:34:44.600Z,78.40
2022-09-25T20:37:30.635Z,78.49
2022-09-25T20:40:16.812Z,78.53
2022-09-25T20:43:02.142Z,78.78
2022-09-25T20:46:04.107Z,79.49
2022-09-25T20:48:51.523Z,79.30
2022-09-25T20:51:37.320Z,79.57
2022-09-25T20:54:25.367Z,79.57
2022-09-25T20:57:11.600Z,79.51
2022-09-25T20:59:57.115Z,79.68
2022-09-25T21:02:42.568Z,79.76
2022-09-25T21:05:28.223Z,79.58
2022-09-25T21:08:13.740Z,79.77
2022-09-25T21:11:01.851Z,79.42
2022-09-25T21:13:52.685Z,79.62
2022-09-25T21:16:37.963Z,79.49
2022-09-25T21:19:23.707Z,79.24
2022-09-25T21:22:09.139Z,79.47
2022-09-25T21:24:54.920Z,79.34
2022-09-25T21:27:40.481Z,79.47
2022-09-25T21:30:25.888Z,79.73
2022-09-25T21:33:11.348Z,79.15
2022-09-25T21:35:56.766Z,79.48
2022-09-25T21:38:43.194Z,79.53
2022-09-25T21:41:30.297Z,79.47
2022-09-25T21:44:17.846Z,79.74
2022-09-25T21:47:03.546Z,79.57
2022-09-25T21:49:48.993Z,79.41
2022-09-25T21:52:34.526Z,79.67
2022-09-25T21:55:19.866Z,79.50
2022-09-25T21:58:05.215Z,79.70
2022-09-25T22:00:50.588Z,79.93
2022-09-25T22:03:37.774Z,79.96
2022-09-25T22:06:29.098Z,80.19
2022-09-25T22:09:23.238Z,80.01
2022-09-25T22:12:08.603Z,79.85
2022-09-25T22:14:54.040Z,79.63
2022-09-25T22:17:39.415Z,79.59
2022-09-25T22:20:24.895Z,79.37
2022-09-25T22:23:10.432Z,79.08
2022-09-25T22:25:55.898Z,79.01
2022-09-25T22:28:42.292Z,78.99
2022-09-25T22:31:30.562Z,79.25
2022-09-25T22:34:17.932Z,79.36
2022-09-25T22:37:03.751Z,79.39
2022-09-25T22:39:49.021Z,79.26
2022-09-25T22:42:34.241Z,79.59
2022-09-25T22:45:19.372Z,79.72
2022-09-25T22:48:06.154Z,79.53
2022-09-25T22:51:07.321Z,79.55
2022-09-25T22:53:54.146Z,79.58
2022-09-25T22:56:39.973Z,79.91
2022-09-25T22:59:25.659Z,79.83
2022-09-25T23:02:11.306Z,80.03
2022-09-25T23:04:56.960Z,79.66
2022-09-25T23:07:42.873Z,79.14
2022-09-25T23:10:42.917Z,79.47
2022-09-25T23:13:34.564Z,79.15
2022-09-25T23:16:20.190Z,79.04
2022-09-25T23:19:05.496Z,79.32
2022-09-25T23:21:52.612Z,79.23
2022-09-25T23:24:38.515Z,79.32
2022-09-25T23:27:23.985Z,79.32
2022-09-25T23:30:10.191Z,79.54
2022-09-25T23:32:55.916Z,79.48
2022-09-25T23:35:41.537Z,79.32
2022-09-25T23:38:27.261Z,79.47
2022-09-25T23:41:21.258Z,79.44
2022-09-25T23:44:08.810Z,79.23
2022-09-25T23:46:54.321Z,79.20
2022-09-25T23:49:39.983Z,79.07
2022-09-25T23:52:26.145Z,79.27
2022-09-25T23:55:11.335Z,79.34
2022-09-25T23:57:56.681Z,79.54
